EGBB/BHX METAR and TAF weather

Enter ICAO airport designator
Station Type Date Time Source
EGBB METAR 2019/06/16 06:20 UTC NOAA

EGBB 160620Z 16007KT 9999 FEW008 10/10 Q1013


Station Type Date Time Source
EGBB Decoded METAR 2019/06/16 06:20 UTC NOAA

Birmingham / Airport, United Kingdom (EGBB) 52-27N 001-44W 0M
Jun 16, 2019 - 02:20 AM EDT / 2019.06.16 0620 UTC
Wind: from the SSE (160 degrees) at 8 MPH (7 KT):0
Visibility: greater than 7 mile(s):0
Sky conditions: mostly clear
Temperature: 50 F (10 C)
Dew Point: 50 F (10 C)
Relative Humidity: 100%
Pressure (altimeter): 29.91 in. Hg (1013 hPa)
ob: EGBB 160620Z 16007KT 9999 FEW008 10/10 Q1013
cycle: 6

Station Type Date Time Source
EGBB TAF 2019/06/16 06:09 UTC NOAA

TAF EGBB 160458Z 1606/1706 19009KT 9999 SCT030 PROB30
TEMPO 1606/1608 9000 BKN008
TEMPO 1608/1622 6000 SHRA PROB30
TEMPO 1608/1706 BKN014 PROB30
TEMPO 1611/1617 19015G25KT 4000 +SHRA

Example: see airport list